Time;durP1;ratioP1;P1;durP2;ratioP2;P2;SDS_P1;SDS_P2;PMS_P1;PMS_P2;Temp;Humidity;BMP_temperature;BMP_pressure;BME280_temperature;BME280_humidity;BME280_pressure;Samples;Min_cycle;Max_cycle;Signal;HPM_P1;HPM_P2
2023/01/25 00:01:48;;;;;;;1999.90;999.90;;;;;;;0.55;99.43;103691.94;10430450;28;20459;-66
2023/01/25 00:06:51;;;;;;;1999.90;999.90;;;;;;;0.88;99.90;103687.75;10415270;28;20058;-66
2023/01/25 00:11:55;;;;;;;1999.90;999.90;;;;;;;0.88;99.65;103680.88;10416579;28;20053;-66
2023/01/25 00:16:57;;;;;;;1999.90;999.90;;;;;;;1.18;98.80;103668.78;10416758;28;20049;-66
2023/01/25 00:21:59;;;;;;;1999.90;999.90;;;;;;;0.46;98.63;103680.47;10415077;28;20057;-66
2023/01/25 00:27:02;;;;;;;1999.90;999.90;;;;;;;0.57;100.00;103673.06;10415890;28;20049;-66
2023/01/25 00:32:13;;;;;;;1999.90;999.90;;;;;;;0.82;98.55;103659.19;10414228;28;20103;-66
2023/01/25 00:37:35;;;;;;;1999.90;999.90;;;;;;;0.76;98.21;103659.00;10413992;28;20045;-66
2023/01/25 00:42:37;;;;;;;1999.90;999.90;;;;;;;0.82;99.71;103654.88;10399624;28;20046;-66
2023/01/25 00:47:40;;;;;;;1999.90;999.90;;;;;;;1.05;98.43;103657.28;10413726;28;20797;-66
2023/01/25 00:52:43;;;;;;;1999.90;999.90;;;;;;;0.80;98.48;103651.41;10411281;28;20405;-66
2023/01/25 00:57:45;;;;;;;1999.90;999.90;;;;;;;0.24;100.00;103661.75;10411399;28;20477;-66
2023/01/25 01:02:47;;;;;;;1999.90;999.90;;;;;;;0.44;100.00;103649.47;10413907;28;20056;-66
2023/01/25 01:07:49;;;;;;;1999.90;999.90;;;;;;;0.55;99.57;103648.13;10412907;28;20049;-66
2023/01/25 01:12:52;;;;;;;1999.90;999.90;;;;;;;0.32;100.00;103643.94;10412553;28;20057;-66
2023/01/25 01:17:55;;;;;;;1999.90;999.90;;;;;;;0.01;100.00;103661.00;10415272;28;20049;-66
2023/01/25 01:22:57;;;;;;;1999.90;999.90;;;;;;;0.41;100.00;103653.69;10415279;28;20053;-66
2023/01/25 01:27:59;;;;;;;1999.90;999.90;;;;;;;0.71;100.00;103651.16;10413379;28;20049;-66
2023/01/25 01:33:02;;;;;;;1999.90;999.90;;;;;;;0.74;100.00;103646.94;10411492;28;20054;-66
2023/01/25 01:38:04;;;;;;;1999.90;999.90;;;;;;;0.83;98.64;103653.22;10413720;28;20046;-66
2023/01/25 01:43:22;;;;;;;1999.90;999.90;;;;;;;1.00;99.10;103644.22;10412657;28;20049;-66
2023/01/25 01:48:45;;;;;;;1999.90;999.90;;;;;;;0.47;99.51;103639.28;10372478;28;20433;-66
2023/01/25 01:53:54;;;;;;;1999.90;999.90;;;;;;;0.69;100.00;103638.19;10416967;28;20056;-66
2023/01/25 01:58:58;;;;;;;1999.90;999.90;;;;;;;0.79;99.69;103636.78;10417306;28;20049;-66
2023/01/25 02:04:01;;;;;;;1999.90;999.90;;;;;;;0.76;99.35;103640.94;10415105;28;20492;-66
2023/01/25 02:09:03;;;;;;;1999.90;999.90;;;;;;;0.39;100.00;103638.16;10402231;28;20135;-66
2023/01/25 02:14:06;;;;;;;1999.90;999.90;;;;;;;0.44;100.00;103628.84;10419656;28;20056;-66
2023/01/25 02:19:12;;;;;;;1999.90;999.90;;;;;;;0.38;100.00;103620.06;10418347;28;20053;-66
2023/01/25 02:24:23;;;;;;;1999.90;999.90;;;;;;;0.33;100.00;103631.09;10417920;28;20396;-66
2023/01/25 02:29:26;;;;;;;1999.90;999.90;;;;;;;-0.01;100.00;103630.03;10419659;28;20502;-66
2023/01/25 02:34:28;;;;;;;1999.90;999.90;;;;;;;-0.09;100.00;103622.91;10418203;28;20103;-66
2023/01/25 02:39:31;;;;;;;1999.90;999.90;;;;;;;0.47;100.00;103616.06;10419288;28;20053;-66
2023/01/25 02:44:33;;;;;;;1999.90;999.90;;;;;;;0.72;100.00;103611.59;10418829;28;20046;-66
2023/01/25 02:49:36;;;;;;;1999.90;999.90;;;;;;;0.53;100.00;103610.22;10417788;28;20049;-66
2023/01/25 02:54:38;;;;;;;1999.90;999.90;;;;;;;0.14;100.00;103606.47;10419191;28;20053;-66
2023/01/25 02:59:41;;;;;;;1999.90;999.90;;;;;;;-0.02;100.00;103604.22;10419453;28;20484;-66
2023/01/25 03:04:43;;;;;;;1999.90;999.90;;;;;;;0.52;100.00;103604.19;10418055;28;20563;-66
2023/01/25 03:09:46;;;;;;;1999.90;999.90;;;;;;;0.18;100.00;103603.19;10417485;28;20103;-66
2023/01/25 03:14:48;;;;;;;1999.90;999.90;;;;;;;0.12;100.00;103586.66;10417238;28;20073;-66
2023/01/25 03:19:52;;;;;;;1999.90;999.90;;;;;;;0.40;100.00;103588.34;10418280;28;20045;-66
2023/01/25 03:24:56;;;;;;;1999.90;999.90;;;;;;;0.44;100.00;103586.72;10417419;28;20041;-66
2023/01/25 03:29:58;;;;;;;1999.90;999.90;;;;;;;0.35;100.00;103582.16;10418109;28;20106;-66
2023/01/25 03:35:00;;;;;;;1999.90;999.90;;;;;;;0.39;100.00;103573.72;10414609;28;20448;-66
2023/01/25 03:40:03;;;;;;;1999.90;999.90;;;;;;;0.03;100.00;103561.47;10373774;28;20046;-66
2023/01/25 03:45:06;;;;;;;1999.90;999.90;;;;;;;0.10;100.00;103557.38;10408248;28;20045;-66
2023/01/25 03:50:09;;;;;;;1999.90;999.90;;;;;;;0.15;100.00;103571.25;10414265;28;20064;-66
2023/01/25 03:55:11;;;;;;;1999.90;999.90;;;;;;;0.16;100.00;103570.44;10413100;28;20481;-66
2023/01/25 04:00:14;;;;;;;1999.90;999.90;;;;;;;0.34;100.00;103571.00;10413080;28;20064;-66
2023/01/25 04:05:17;;;;;;;1999.90;999.90;;;;;;;0.11;100.00;103557.41;10415598;28;20050;-66
2023/01/25 04:10:19;;;;;;;1999.90;999.90;;;;;;;0.17;100.00;103554.16;10412184;28;20057;-66
2023/01/25 04:15:22;;;;;;;1999.90;999.90;;;;;;;-0.07;100.00;103554.28;10411886;28;20136;-66
2023/01/25 04:20:24;;;;;;;1999.90;999.90;;;;;;;-0.48;100.00;103556.41;10407355;23;20107;-69
2023/01/25 04:25:26;;;;;;;1999.90;999.90;;;;;;;-0.53;100.00;103550.25;10372968;28;20053;-69
2023/01/25 04:30:29;;;;;;;1999.90;999.90;;;;;;;0.13;100.00;103537.72;10373354;28;20481;-68
2023/01/25 04:35:31;;;;;;;1999.90;999.90;;;;;;;-0.24;100.00;103533.16;10374177;28;20049;-68
2023/01/25 04:40:33;;;;;;;1999.90;999.90;;;;;;;0.27;100.00;103533.00;10413753;28;20053;-68
2023/01/25 04:45:36;;;;;;;1999.90;999.90;;;;;;;0.26;99.09;103532.94;10414751;28;20445;-68
2023/01/25 04:50:42;;;;;;;1999.90;999.90;;;;;;;0.04;98.75;103524.56;10415402;28;20053;-68
2023/01/25 04:55:49;;;;;;;1999.90;999.90;;;;;;;0.43;98.41;103525.69;10406431;28;20485;-68
2023/01/25 05:00:51;;;;;;;1999.90;999.90;;;;;;;0.17;99.88;103513.81;10407048;28;20492;-68
2023/01/25 05:05:53;;;;;;;1999.90;999.90;;;;;;;-0.10;100.00;103512.97;10414390;28;20057;-68
2023/01/25 05:10:56;;;;;;;1999.90;999.90;;;;;;;-0.02;100.00;103507.25;10413796;28;20492;-68
2023/01/25 05:15:58;;;;;;;1999.90;999.90;;;;;;;-0.02;100.00;103509.81;10414784;28;20050;-68
2023/01/25 05:21:01;;;;;;;1999.90;999.90;;;;;;;-0.09;100.00;103512.16;10413034;28;20064;-68
2023/01/25 05:31:24;;;;;;;1999.90;999.90;;;;;;;-0.22;100.00;103506.63;10406922;28;20061;-69
2023/01/25 05:36:26;;;;;;;1999.90;999.90;;;;;;;0.08;100.00;103510.06;10404851;28;20045;-69
2023/01/25 05:41:30;;;;;;;1999.90;999.90;;;;;;;-0.09;100.00;103505.28;10423207;28;20063;-69
2023/01/25 05:46:32;;;;;;;1999.90;999.90;;;;;;;-0.02;100.00;103502.09;10421788;28;20504;-68
2023/01/25 05:51:35;;;;;;;1999.90;999.90;;;;;;;-0.26;100.00;103501.34;10421515;28;20507;-68
2023/01/25 05:56:37;;;;;;;1999.90;999.90;;;;;;;-0.48;100.00;103504.94;10421830;28;20041;-69
2023/01/25 06:01:39;;;;;;;1999.90;999.90;;;;;;;-0.26;100.00;103499.63;10419924;28;20440;-68
2023/01/25 06:06:41;;;;;;;1999.90;999.90;;;;;;;-0.23;100.00;103512.59;10409720;28;20058;-68
2023/01/25 06:11:44;;;;;;;1999.90;999.90;;;;;;;-0.34;100.00;103510.50;10421320;28;20049;-69
2023/01/25 06:16:46;;;;;;;1999.90;999.90;;;;;;;0.28;100.00;103508.94;10409849;28;20195;-68
2023/01/25 06:21:49;;;;;;;1999.90;999.90;;;;;;;-0.08;100.00;103504.47;10419551;28;20058;-68
2023/01/25 06:26:52;;;;;;;1999.90;999.90;;;;;;;-0.20;100.00;103498.97;10418011;28;20118;-68
2023/01/25 06:31:54;;;;;;;1999.90;999.90;;;;;;;0.14;100.00;103498.25;10422133;28;20053;-68
2023/01/25 06:36:56;;;;;;;1999.90;999.90;;;;;;;-0.02;100.00;103494.38;10415815;28;20429;-68
2023/01/25 06:41:59;;;;;;;1999.90;999.90;;;;;;;0.22;100.00;103503.66;10419984;28;20416;-68
2023/01/25 06:47:01;;;;;;;1999.90;999.90;;;;;;;-0.11;100.00;103499.22;10418061;28;20056;-68
2023/01/25 06:52:04;;;;;;;1999.90;999.90;;;;;;;0.28;100.00;103496.06;10420529;28;20057;-68
2023/01/25 06:57:09;;;;;;;1999.90;999.90;;;;;;;-0.40;100.00;103500.91;10413428;28;20485;-68
2023/01/25 07:02:14;;;;;;;1999.90;999.90;;;;;;;-0.19;100.00;103500.69;10419409;28;20061;-68
2023/01/25 07:07:17;;;;;;;1999.90;999.90;;;;;;;-0.08;100.00;103490.72;10412262;28;20052;-68
2023/01/25 07:12:19;;;;;;;1999.90;999.90;;;;;;;0.26;100.00;103484.84;10416189;28;20053;-68
2023/01/25 07:17:21;;;;;;;1999.90;999.90;;;;;;;0.17;100.00;103485.47;10416425;28;20427;-68
2023/01/25 07:22:24;;;;;;;1999.90;999.90;;;;;;;-0.39;100.00;103492.34;10418071;28;20115;-68
2023/01/25 07:27:26;;;;;;;1999.90;999.90;;;;;;;-0.15;100.00;103489.66;10398077;28;20057;-67
2023/01/25 07:32:28;;;;;;;1999.90;999.90;;;;;;;-0.80;100.00;103484.19;10417885;28;20057;-67
2023/01/25 07:37:33;;;;;;;1999.90;999.90;;;;;;;-0.42;100.00;103469.06;10414990;28;20041;-67
2023/01/25 07:42:35;;;;;;;1999.90;999.90;;;;;;;-0.05;100.00;103478.81;10413508;28;20045;-67
2023/01/25 07:47:37;;;;;;;1999.90;999.90;;;;;;;0.05;100.00;103468.75;10414952;28;20050;-67
2023/01/25 07:52:40;;;;;;;1999.90;999.90;;;;;;;-0.17;100.00;103470.69;10395913;28;20045;-67
2023/01/25 07:57:43;;;;;;;1999.90;999.90;;;;;;;-0.01;100.00;103474.63;10414663;28;20508;-67
2023/01/25 08:02:48;;;;;;;1999.90;999.90;;;;;;;-0.40;100.00;103468.31;10413006;28;20056;-68
2023/01/25 08:07:50;;;;;;;1999.90;999.90;;;;;;;-0.23;100.00;103460.22;10404934;28;20087;-68
2023/01/25 08:12:53;;;;;;;1999.90;999.90;;;;;;;0.14;100.00;103459.59;10412695;28;20045;-68
2023/01/25 08:17:58;;;;;;;1999.90;999.90;;;;;;;-0.27;100.00;103460.94;10410970;28;20045;-68
2023/01/25 08:23:01;;;;;;;1999.90;999.90;;;;;;;-0.15;100.00;103463.03;10413323;28;20111;-67
2023/01/25 08:28:03;;;;;;;1999.90;999.90;;;;;;;0.07;100.00;103456.78;10412862;28;20041;-68
2023/01/25 08:33:06;;;;;;;1999.90;999.90;;;;;;;0.14;100.00;103453.59;10413689;28;20378;-67
2023/01/25 08:38:08;;;;;;;1999.90;999.90;;;;;;;0.05;100.00;103456.78;10415294;28;20058;-67
2023/01/25 08:43:10;;;;;;;1999.90;999.90;;;;;;;-0.45;100.00;103456.13;10388166;28;20049;-67
2023/01/25 08:48:14;;;;;;;1999.90;999.90;;;;;;;0.14;100.00;103443.28;10396345;28;20042;-67
2023/01/25 08:53:17;;;;;;;1999.90;999.90;;;;;;;0.25;100.00;103441.00;10413159;28;20064;-68
2023/01/25 08:58:21;;;;;;;1999.90;999.90;;;;;;;0.16;100.00;103437.31;10409751;28;20045;-67
2023/01/25 09:03:23;;;;;;;1999.90;999.90;;;;;;;0.18;100.00;103429.66;10413523;28;20076;-67
2023/01/25 09:08:25;;;;;;;1999.90;999.90;;;;;;;-0.17;100.00;103433.78;10414911;28;20052;-68
2023/01/25 09:13:28;;;;;;;1999.90;999.90;;;;;;;-0.05;100.00;103428.97;10413340;28;20404;-68
2023/01/25 09:18:30;;;;;;;1999.90;999.90;;;;;;;-0.33;100.00;103427.31;10409570;28;20048;-68
2023/01/25 09:23:33;;;;;;;1999.90;999.90;;;;;;;-0.50;100.00;103427.66;10415372;28;20053;-67
2023/01/25 09:28:53;;;;;;;1999.90;999.90;;;;;;;-0.17;100.00;103433.78;10412905;28;20041;-67
2023/01/25 09:33:56;;;;;;;1999.90;999.90;;;;;;;-0.01;100.00;103421.41;10414146;28;20057;-67
2023/01/25 09:38:59;;;;;;;1999.90;999.90;;;;;;;-0.21;100.00;103412.22;10385600;28;20057;-67
2023/01/25 09:44:20;;;;;;;1999.90;999.90;;;;;;;-0.14;100.00;103413.28;10414818;28;20060;-67
2023/01/25 09:49:40;;;;;;;1999.90;999.90;;;;;;;-0.25;100.00;103416.41;10412952;28;20053;-68
2023/01/25 09:54:45;;;;;;;1999.90;999.90;;;;;;;-0.26;100.00;103412.06;10393482;28;20439;-68
2023/01/25 09:59:50;;;;;;;1999.90;999.90;;;;;;;0.18;100.00;103409.94;10387936;28;20087;-67
2023/01/25 10:04:54;;;;;;;1999.90;999.90;;;;;;;0.08;100.00;103414.75;10398646;28;20099;-67
2023/01/25 10:10:06;;;;;;;1999.90;999.90;;;;;;;-0.23;100.00;103411.31;10408430;28;20045;-68
2023/01/25 10:15:18;;;;;;;1999.90;999.90;;;;;;;-0.39;100.00;103400.56;10393614;28;20398;-67
2023/01/25 10:20:41;;;;;;;1999.90;999.90;;;;;;;-0.21;100.00;103401.91;10408496;28;20084;-67
2023/01/25 10:25:59;;;;;;;1999.90;999.90;;;;;;;-0.10;100.00;103397.06;10397709;28;20049;-67
2023/01/25 10:31:05;;;;;;;1999.90;999.90;;;;;;;0.02;100.00;103383.66;10397073;28;20416;-67
2023/01/25 10:36:13;;;;;;;1999.90;999.90;;;;;;;-0.51;100.00;103374.44;10394536;28;20057;-67
2023/01/25 10:41:25;;;;;;;1999.90;999.90;;;;;;;0.04;100.00;103372.59;10399033;28;20510;-67
2023/01/25 10:46:28;;;;;;;1999.90;999.90;;;;;;;0.02;100.00;103352.75;10399260;28;20507;-67
2023/01/25 10:51:34;;;;;;;1999.90;999.90;;;;;;;-0.27;100.00;103342.50;10399478;28;20510;-67
2023/01/25 10:56:39;;;;;;;1999.90;999.90;;;;;;;-0.07;100.00;103338.81;10418651;28;20049;-68
2023/01/25 11:01:42;;;;;;;1999.90;999.90;;;;;;;0.03;100.00;103326.19;10389541;28;20103;-67
2023/01/25 11:06:50;;;;;;;1999.90;999.90;;;;;;;0.32;100.00;103307.22;10398896;28;20125;-67
2023/01/25 11:12:00;;;;;;;1999.90;999.90;;;;;;;0.06;100.00;103300.50;10416297;28;20488;-67
2023/01/25 11:17:04;;;;;;;1999.90;999.90;;;;;;;0.61;100.00;103291.59;10389637;28;20061;-68
2023/01/25 11:22:18;;;;;;;1999.90;999.90;;;;;;;0.71;100.00;103279.78;10391534;28;20058;-68
2023/01/25 11:27:25;;;;;;;1999.90;999.90;;;;;;;0.26;100.00;103265.81;10396863;28;20046;-68
2023/01/25 11:32:28;;;;;;;1999.90;999.90;;;;;;;0.02;100.00;103249.72;10389163;28;20041;-68
2023/01/25 11:37:40;;;;;;;1999.90;999.90;;;;;;;0.02;100.00;103247.16;10417541;28;20045;-68
2023/01/25 11:43:11;;;;;;;1999.90;999.90;;;;;;;-0.07;100.00;103227.19;10418693;28;20057;-68
2023/01/25 11:48:50;;;;;;;1999.90;999.90;;;;;;;0.27;100.00;103225.44;10412953;28;20105;-68
2023/01/25 11:54:11;;;;;;;1999.90;999.90;;;;;;;0.34;100.00;103215.34;10410640;28;20492;-68
2023/01/25 11:59:29;;;;;;;1999.90;999.90;;;;;;;0.07;100.00;103191.47;10385068;28;20124;-68
2023/01/25 12:04:47;;;;;;;1999.90;999.90;;;;;;;-0.15;100.00;103184.91;10415028;28;20415;-69
2023/01/25 12:09:56;;;;;;;1999.90;999.90;;;;;;;0.42;100.00;103179.44;10399852;28;20115;-69
2023/01/25 12:15:07;;;;;;;1999.90;999.90;;;;;;;0.34;100.00;103165.50;10399902;28;20057;-68
2023/01/25 12:20:20;;;;;;;1999.90;999.90;;;;;;;0.60;100.00;103145.47;10416905;28;20057;-68
2023/01/25 12:25:25;;;;;;;1999.90;999.90;;;;;;;-0.07;100.00;103131.91;10417002;28;20065;-68
2023/01/25 12:30:47;;;;;;;1999.90;999.90;;;;;;;0.21;100.00;103125.69;10416860;28;20068;-68
2023/01/25 12:36:08;;;;;;;1999.90;999.90;;;;;;;0.19;100.00;103111.91;10415587;28;20049;-68
2023/01/25 12:41:26;;;;;;;1999.90;999.90;;;;;;;0.31;100.00;103095.84;10414394;28;20076;-69
2023/01/25 12:46:34;;;;;;;1999.90;999.90;;;;;;;-0.23;100.00;103085.19;10414525;28;20046;-68
2023/01/25 12:51:38;;;;;;;1999.90;999.90;;;;;;;0.12;100.00;103071.41;10398250;28;20075;-68
2023/01/25 12:56:52;;;;;;;1999.90;999.90;;;;;;;0.67;100.00;103059.69;10397727;28;20404;-69
2023/01/25 13:02:16;;;;;;;1999.90;999.90;;;;;;;0.98;100.00;103056.84;10398386;28;20101;-68
2023/01/25 13:07:43;;;;;;;1999.90;999.90;;;;;;;0.04;100.00;103054.91;10413218;28;20544;-68
2023/01/25 13:12:59;;;;;;;1999.90;999.90;;;;;;;-0.01;100.00;103057.34;10383680;28;20101;-68
2023/01/25 13:18:21;;;;;;;1999.90;999.90;;;;;;;0.33;100.00;103040.06;10358041;28;20049;-68
2023/01/25 13:23:45;;;;;;;1999.90;999.90;;;;;;;0.70;100.00;103027.91;10357233;28;20058;-69
2023/01/25 13:28:58;;;;;;;1999.90;999.90;;;;;;;0.31;100.00;103036.59;10373950;28;20050;-68
2023/01/25 13:34:01;;;;;;;1999.90;999.90;;;;;;;-0.31;100.00;103022.31;10356683;28;20485;-69
2023/01/25 13:39:31;;;;;;;1999.90;999.90;;;;;;;0.14;100.00;103006.19;10384349;28;20057;-69
2023/01/25 13:44:36;;;;;;;1999.90;999.90;;;;;;;-0.08;100.00;103007.41;10414444;28;20049;-68
2023/01/25 13:49:47;;;;;;;1999.90;999.90;;;;;;;0.37;100.00;102995.50;10403864;28;20049;-69
2023/01/25 13:54:52;;;;;;;1999.90;999.90;;;;;;;0.62;100.00;102981.34;10422843;28;20124;-68
2023/01/25 13:59:59;;;;;;;1999.90;999.90;;;;;;;0.23;100.00;102984.03;10404294;28;20052;-70
2023/01/25 14:05:19;;;;;;;1999.90;999.90;;;;;;;0.41;100.00;102986.13;10422538;28;20049;-69
2023/01/25 14:10:25;;;;;;;1999.90;999.90;;;;;;;-0.18;100.00;103000.31;10421587;28;20516;-69
2023/01/25 14:15:31;;;;;;;1999.90;999.90;;;;;;;-0.01;100.00;103000.69;10403963;28;20136;-69
2023/01/25 14:20:33;;;;;;;1999.90;999.90;;;;;;;0.11;100.00;103000.09;10421520;28;20053;-69
2023/01/25 14:25:39;;;;;;;1999.90;999.90;;;;;;;-0.03;100.00;102976.63;10422344;28;20050;-69
2023/01/25 14:30:42;;;;;;;1999.90;999.90;;;;;;;0.02;100.00;102980.16;10404663;28;20045;-69
2023/01/25 14:35:45;;;;;;;1999.90;999.90;;;;;;;0.22;100.00;102987.41;10368725;28;20062;-69
2023/01/25 14:41:12;;;;;;;1999.90;999.90;;;;;;;-0.20;100.00;102971.09;10384295;28;20045;-69
2023/01/25 14:46:29;;;;;;;1999.90;999.90;;;;;;;0.08;100.00;102971.69;10402778;28;20057;-69
2023/01/25 14:51:32;;;;;;;1999.90;999.90;;;;;;;0.21;100.00;102960.81;10402317;28;20050;-69
2023/01/25 14:56:59;;;;;;;1999.90;999.90;;;;;;;0.09;100.00;102950.25;10402129;28;20049;-69
2023/01/25 15:02:19;;;;;;;1999.90;999.90;;;;;;;-0.04;100.00;102947.41;10419481;28;20053;-69
2023/01/25 15:07:43;;;;;;;1999.90;999.90;;;;;;;-0.28;100.00;102949.47;10419296;28;20103;-68
2023/01/25 15:13:18;;;;;;;1999.90;999.90;;;;;;;-0.09;100.00;102946.44;10418416;28;20401;-68
2023/01/25 15:18:42;;;;;;;1999.90;999.90;;;;;;;-0.44;100.00;102948.22;10401337;28;20064;-68
2023/01/25 15:23:47;;;;;;;1999.90;999.90;;;;;;;-0.08;100.00;102940.47;10418405;28;20072;-68
2023/01/25 15:28:51;;;;;;;1999.90;999.90;;;;;;;-0.14;100.00;102942.91;10418373;28;20485;-68
2023/01/25 15:33:54;;;;;;;1999.90;999.90;;;;;;;-0.02;100.00;102927.72;10400523;28;20053;-68
2023/01/25 15:38:57;;;;;;;1999.90;999.90;;;;;;;-0.51;100.00;102930.91;10400742;28;20059;-68
2023/01/25 15:44:00;;;;;;;1999.90;999.90;;;;;;;-0.15;100.00;102933.44;10417278;28;20049;-68
2023/01/25 15:49:04;;;;;;;1999.90;999.90;;;;;;;-0.03;100.00;102938.84;10417778;28;20045;-68
2023/01/25 15:54:07;;;;;;;1999.90;999.90;;;;;;;-0.42;100.00;102923.41;10391742;28;20049;-68
2023/01/25 15:59:15;;;;;;;1999.90;999.90;;;;;;;-0.52;100.00;102918.88;10376285;28;20050;-69
2023/01/25 16:04:17;;;;;;;1999.90;999.90;;;;;;;-0.48;100.00;102928.44;10372617;28;20081;-68
2023/01/25 16:09:28;;;;;;;1999.90;999.90;;;;;;;-0.28;100.00;102919.44;10408510;28;20045;-68
2023/01/25 16:14:30;;;;;;;1999.90;999.90;;;;;;;-0.17;100.00;102904.19;10415175;28;20060;-68
2023/01/25 16:19:33;;;;;;;1999.90;999.90;;;;;;;0.03;100.00;102885.72;10417110;28;20056;-68
2023/01/25 16:24:36;;;;;;;1999.90;999.90;;;;;;;-0.08;100.00;102898.41;10415340;28;20062;-68
2023/01/25 16:29:40;;;;;;;1999.90;999.90;;;;;;;-0.39;100.00;102908.03;10412244;28;20120;-68
2023/01/25 16:34:43;;;;;;;1999.90;999.90;;;;;;;-0.44;100.00;102925.97;10406132;23;20049;-67
2023/01/25 16:39:45;;;;;;;1999.90;999.90;;;;;;;-1.05;100.00;102919.34;10414804;28;20099;-67
2023/01/25 16:44:48;;;;;;;1999.90;999.90;;;;;;;-0.37;100.00;102916.63;10415573;28;20057;-67
2023/01/25 16:49:50;;;;;;;1999.90;999.90;;;;;;;-0.59;100.00;102929.06;10396814;28;20488;-67
2023/01/25 16:54:53;;;;;;;1999.90;999.90;;;;;;;-0.52;100.00;102926.59;10398625;28;20099;-67
2023/01/25 16:59:55;;;;;;;1999.90;999.90;;;;;;;-0.28;100.00;102919.44;10415752;28;20435;-67
2023/01/25 17:04:57;;;;;;;1999.90;999.90;;;;;;;-0.46;100.00;102919.03;10413664;28;20122;-67
2023/01/25 17:10:00;;;;;;;1999.90;999.90;;;;;;;-0.43;100.00;102907.09;10415077;28;20444;-67
2023/01/25 17:15:03;;;;;;;1999.90;999.90;;;;;;;-0.48;100.00;102910.41;10414686;28;20100;-67
2023/01/25 17:20:07;;;;;;;1999.90;999.90;;;;;;;-0.41;100.00;102896.84;10413556;28;20480;-66
2023/01/25 17:25:10;;;;;;;1999.90;999.90;;;;;;;-0.75;100.00;102885.78;10422848;28;20141;-67
2023/01/25 17:30:12;;;;;;;1999.90;999.90;;;;;;;-0.56;100.00;102876.78;10454301;28;20545;-67
2023/01/25 17:35:15;;;;;;;1999.90;999.90;;;;;;;-0.46;100.00;102864.97;10445566;28;20057;-67
2023/01/25 17:40:17;;;;;;;1999.90;999.90;;;;;;;-0.60;100.00;102856.97;10421739;28;20045;-67
2023/01/25 17:45:19;;;;;;;1999.90;999.90;;;;;;;-1.20;100.00;102847.84;10414159;28;20079;-66
2023/01/25 17:50:22;;;;;;;1999.90;999.90;;;;;;;-0.93;100.00;102845.06;10405691;28;20046;-66
2023/01/25 17:55:24;;;;;;;1999.90;999.90;;;;;;;-0.97;100.00;102833.00;10422895;28;20083;-66
2023/01/25 18:00:27;;;;;;;1999.90;999.90;;;;;;;-1.43;100.00;102819.00;10420970;28;20653;-66
2023/01/25 18:05:29;;;;;;;1999.90;999.90;;;;;;;-1.32;100.00;102800.47;10422468;28;20057;-65
2023/01/25 18:10:32;;;;;;;1999.90;999.90;;;;;;;-0.74;100.00;102787.19;10420605;28;20484;-65
2023/01/25 18:15:34;;;;;;;1999.90;999.90;;;;;;;-0.68;100.00;102771.88;10419086;28;20053;-66
2023/01/25 18:20:37;;;;;;;1999.90;999.90;;;;;;;-0.79;100.00;102763.97;10417563;28;20088;-65
2023/01/25 18:25:39;;;;;;;1999.90;999.90;;;;;;;-0.63;100.00;102760.00;10420671;28;20049;-65
2023/01/25 18:30:51;;;;;;;1999.90;999.90;;;;;;;-1.01;100.00;102747.19;10402003;28;20041;-65
2023/01/25 18:35:56;;;;;;;1999.90;999.90;;;;;;;-1.06;100.00;102753.94;10402049;28;20477;-65
2023/01/25 18:40:59;;;;;;;1999.90;999.90;;;;;;;-0.52;100.00;102746.47;10403949;28;20042;-65
2023/01/25 18:46:01;;;;;;;1999.90;999.90;;;;;;;-0.65;100.00;102750.50;10400049;28;20056;-65
2023/01/25 18:51:16;;;;;;;1999.90;999.90;;;;;;;-0.68;100.00;102765.88;10416052;28;20141;-65
2023/01/25 18:56:20;;;;;;;1999.90;999.90;;;;;;;-0.81;100.00;102749.31;10420152;28;20054;-65
2023/01/25 19:01:22;;;;;;;1999.90;999.90;;;;;;;-0.60;100.00;102736.91;10420388;28;20087;-65
2023/01/25 19:06:25;;;;;;;1999.90;999.90;;;;;;;-0.94;100.00;102735.34;10420234;28;20049;-64
2023/01/25 19:11:27;;;;;;;1999.90;999.90;;;;;;;-1.21;100.00;102720.16;10420008;28;20053;-65
2023/01/25 19:16:29;;;;;;;1999.90;999.90;;;;;;;-0.99;100.00;102721.53;10419656;28;20484;-64
2023/01/25 19:21:32;;;;;;;1999.90;999.90;;;;;;;-1.43;100.00;102729.97;10419999;28;20053;-65
2023/01/25 19:26:34;;;;;;;1999.90;999.90;;;;;;;-1.26;100.00;102721.75;10419379;28;20095;-64
2023/01/25 19:31:37;;;;;;;1999.90;999.90;;;;;;;-1.06;100.00;102699.06;10401692;28;20064;-65
2023/01/25 19:36:46;;;;;;;1999.90;999.90;;;;;;;-0.64;100.00;102690.50;10400889;28;20061;-65
2023/01/25 19:41:51;;;;;;;1999.90;999.90;;;;;;;-0.76;100.00;102692.00;10401334;28;20054;-65
2023/01/25 19:46:53;;;;;;;1999.90;999.90;;;;;;;-1.29;100.00;102691.72;10416914;28;20054;-65
2023/01/25 19:51:56;;;;;;;1999.90;999.90;;;;;;;-1.37;100.00;102665.00;10418272;28;20488;-65
2023/01/25 19:56:58;;;;;;;1999.90;999.90;;;;;;;-1.09;100.00;102674.16;10418153;28;20056;-65
2023/01/25 20:02:00;;;;;;;1999.90;999.90;;;;;;;-1.18;100.00;102666.25;10417318;28;20099;-65
2023/01/25 20:07:03;;;;;;;1999.90;999.90;;;;;;;-0.94;100.00;102671.06;10418158;28;20045;-65
2023/01/25 20:12:07;;;;;;;1999.90;999.90;;;;;;;-1.32;100.00;102656.53;10399535;28;20081;-65
2023/01/25 20:17:09;;;;;;;1999.90;999.90;;;;;;;-1.09;100.00;102666.47;10417370;28;20104;-66
2023/01/25 20:22:12;;;;;;;1999.90;999.90;;;;;;;-1.32;100.00;102659.09;10416631;28;20053;-65
2023/01/25 20:27:15;;;;;;;1999.90;999.90;;;;;;;-1.49;100.00;102657.88;10417095;28;20045;-65
2023/01/25 20:32:17;;;;;;;1999.90;999.90;;;;;;;-1.35;100.00;102651.31;10399356;28;20083;-66
2023/01/25 20:37:33;;;;;;;1999.90;999.90;;;;;;;-1.60;100.00;102651.63;10416513;28;20053;-66
2023/01/25 20:42:36;;;;;;;1999.90;999.90;;;;;;;-1.20;100.00;102655.94;10415928;28;20455;-66
2023/01/25 20:47:38;;;;;;;1999.90;999.90;;;;;;;-1.15;100.00;102656.91;10416359;28;20041;-65
2023/01/25 20:52:40;;;;;;;1999.90;999.90;;;;;;;-1.44;100.00;102651.13;10415579;28;20467;-65
2023/01/25 20:57:43;;;;;;;1999.90;999.90;;;;;;;-0.55;100.00;102634.06;10415002;28;20476;-66
2023/01/25 21:02:45;;;;;;;1999.90;999.90;;;;;;;-1.21;100.00;102622.47;10397819;28;20049;-66
2023/01/25 21:07:48;;;;;;;1999.90;999.90;;;;;;;-1.78;100.00;102621.25;10416086;28;20053;-66
2023/01/25 21:12:50;;;;;;;1999.90;999.90;;;;;;;-1.61;100.00;102609.66;10415624;28;20046;-66
2023/01/25 21:17:52;;;;;;;1999.90;999.90;;;;;;;-1.65;100.00;102607.00;10414839;28;20389;-66
2023/01/25 21:22:54;;;;;;;1999.90;999.90;;;;;;;-1.34;100.00;102608.53;10414893;28;20053;-66
2023/01/25 21:27:57;;;;;;;1999.90;999.90;;;;;;;-1.28;100.00;102610.34;10414745;28;20381;-66
2023/01/25 21:32:59;;;;;;;1999.90;999.90;;;;;;;-1.38;100.00;102597.31;10415264;28;20115;-66
2023/01/25 21:38:02;;;;;;;1999.90;999.90;;;;;;;-1.45;100.00;102592.88;10414398;28;20053;-66
2023/01/25 21:43:04;;;;;;;1999.90;999.90;;;;;;;-1.70;100.00;102582.09;10415044;28;20053;-66
2023/01/25 21:48:06;;;;;;;1999.90;999.90;;;;;;;-1.29;100.00;102572.63;10415384;28;20041;-66
2023/01/25 21:53:09;;;;;;;1999.90;999.90;;;;;;;-1.42;100.00;102574.94;10414858;28;20057;-66
2023/01/25 21:58:13;;;;;;;1999.90;999.90;;;;;;;-1.42;100.00;102585.22;10414694;28;20098;-66
2023/01/25 22:03:15;;;;;;;1999.90;999.90;;;;;;;-1.29;100.00;102590.63;10414230;28;20107;-66
2023/01/25 22:08:18;;;;;;;1999.90;999.90;;;;;;;-1.21;100.00;102574.53;10412939;28;20057;-66